createdAt,value
2023-05-22T00:01:56.718Z,81.50
2023-05-22T00:04:23.718Z,81.50
2023-05-22T00:06:50.641Z,81.80
2023-05-22T00:09:17.459Z,81.80
2023-05-22T00:11:44.331Z,81.80
2023-05-22T00:14:13.378Z,81.90
2023-05-22T00:16:40.363Z,82.30
2023-05-22T00:19:13.004Z,82.30
2023-05-22T00:21:39.989Z,83.00
2023-05-22T00:24:07.117Z,82.30
2023-05-22T00:26:34.173Z,82.50
2023-05-22T00:29:01.328Z,82.70
2023-05-22T00:31:28.189Z,82.90
2023-05-22T00:33:54.973Z,83.20
2023-05-22T00:36:21.807Z,83.30
2023-05-22T00:38:48.580Z,83.60
2023-05-22T00:41:15.474Z,83.80
2023-05-22T00:43:42.288Z,84.10
2023-05-22T00:46:09.855Z,84.20
2023-05-22T00:48:36.808Z,84.40
2023-05-22T00:51:03.996Z,84.70
2023-05-22T00:53:31.572Z,84.90
2023-05-22T00:55:59.056Z,85.00
2023-05-22T00:58:27.510Z,85.30
2023-05-22T01:00:55.588Z,85.40
2023-05-22T01:03:26.595Z,85.50
2023-05-22T01:05:55.775Z,85.60
2023-05-22T01:08:22.570Z,85.70
2023-05-22T01:10:56.861Z,85.70
2023-05-22T01:13:39.761Z,85.70
2023-05-22T01:16:30.134Z,85.80
2023-05-22T01:19:38.068Z,85.80
2023-05-22T01:22:26.479Z,86.10
2023-05-22T01:25:21.090Z,86.00
2023-05-22T01:28:25.033Z,85.90
2023-05-22T01:31:11.409Z,85.80
2023-05-22T01:33:51.500Z,85.70
2023-05-22T01:36:22.575Z,85.70
2023-05-22T01:38:51.335Z,85.50
2023-05-22T01:41:18.778Z,85.40
2023-05-22T01:43:46.127Z,85.20
2023-05-22T01:46:13.208Z,85.20
2023-05-22T01:48:40.007Z,85.20
2023-05-22T01:51:17.970Z,85.20
2023-05-22T01:54:05.981Z,85.30
2023-05-22T01:56:41.310Z,85.30
2023-05-22T01:59:26.139Z,85.30
2023-05-22T02:01:55.073Z,85.30
2023-05-22T02:04:23.318Z,85.40
2023-05-22T02:06:52.796Z,85.80
2023-05-22T02:09:21.393Z,85.40
2023-05-22T02:11:48.740Z,85.20
2023-05-22T02:14:16.216Z,85.20
2023-05-22T02:16:47.914Z,85.20
2023-05-22T02:19:15.457Z,85.10
2023-05-22T02:21:43.344Z,84.90
2023-05-22T02:24:10.598Z,85.10
2023-05-22T02:26:38.002Z,85.50
2023-05-22T02:29:04.772Z,85.80
2023-05-22T02:31:31.726Z,85.90
2023-05-22T02:33:58.545Z,86.00
2023-05-22T02:36:26.750Z,86.20
2023-05-22T02:38:55.321Z,86.40
2023-05-22T02:41:22.253Z,86.50
2023-05-22T02:43:48.994Z,86.50
2023-05-22T02:46:15.971Z,86.50
2023-05-22T02:48:42.810Z,86.70
2023-05-22T02:51:09.755Z,87.00
2023-05-22T02:53:40.145Z,87.00
2023-05-22T02:56:12.021Z,87.10
2023-05-22T02:58:39.562Z,87.10
2023-05-22T03:01:06.696Z,87.00
2023-05-22T03:03:34.110Z,86.90
2023-05-22T03:06:01.784Z,86.80
2023-05-22T03:08:29.114Z,86.80
2023-05-22T03:11:00.453Z,86.80
2023-05-22T03:13:27.566Z,86.80
2023-05-22T03:15:54.514Z,86.80
2023-05-22T03:18:21.882Z,86.90
2023-05-22T03:20:48.685Z,87.00
2023-05-22T03:23:15.533Z,87.10
2023-05-22T03:25:42.467Z,87.30
2023-05-22T03:28:09.326Z,87.60
2023-05-22T03:30:36.077Z,87.80
2023-05-22T03:33:02.878Z,88.00
2023-05-22T03:35:29.644Z,88.20
2023-05-22T03:37:56.372Z,88.30
2023-05-22T03:40:23.152Z,88.60
2023-05-22T03:42:50.030Z,88.90
2023-05-22T03:45:16.970Z,89.10
2023-05-22T03:47:43.832Z,89.20
2023-05-22T03:50:11.065Z,89.10
2023-05-22T03:52:38.354Z,89.20
2023-05-22T03:55:06.373Z,89.40
2023-05-22T03:57:33.072Z,89.40
2023-05-22T04:00:06.663Z,89.30
2023-05-22T04:02:33.449Z,89.20
2023-05-22T04:05:00.671Z,89.20
2023-05-22T04:07:27.630Z,89.10
2023-05-22T04:09:54.377Z,89.00
2023-05-22T04:12:21.164Z,88.90
2023-05-22T04:14:47.895Z,88.80
2023-05-22T04:17:14.745Z,88.60
2023-05-22T04:19:41.509Z,88.50
2023-05-22T04:22:08.222Z,88.50
2023-05-22T04:24:34.952Z,88.50
2023-05-22T04:27:02.275Z,88.50
2023-05-22T04:29:29.334Z,88.50
2023-05-22T04:31:56.081Z,88.50
2023-05-22T04:34:22.932Z,88.40
2023-05-22T04:36:49.837Z,88.50
2023-05-22T04:39:16.850Z,88.60
2023-05-22T04:41:44.406Z,88.70
2023-05-22T04:44:11.227Z,88.80
2023-05-22T04:46:38.339Z,88.90
2023-05-22T04:49:05.210Z,89.00
2023-05-22T04:51:33.079Z,89.20
2023-05-22T04:53:59.997Z,89.20
2023-05-22T04:56:36.425Z,89.10
2023-05-22T04:59:05.496Z,89.20
2023-05-22T05:01:33.429Z,89.00
2023-05-22T05:04:00.811Z,89.00
2023-05-22T05:06:27.753Z,89.00
2023-05-22T05:08:55.006Z,88.90
2023-05-22T05:11:21.784Z,88.90
2023-05-22T05:13:48.586Z,88.90
2023-05-22T05:16:16.104Z,88.80
2023-05-22T05:18:43.539Z,89.00
2023-05-22T05:21:10.669Z,89.00
2023-05-22T05:23:37.445Z,89.10
2023-05-22T05:26:04.321Z,90.00
2023-05-22T05:28:31.066Z,89.30
2023-05-22T05:30:57.926Z,89.30
2023-05-22T05:33:24.816Z,89.30
2023-05-22T05:35:52.707Z,89.30
2023-05-22T05:38:19.900Z,89.30
2023-05-22T05:40:47.033Z,89.40
2023-05-22T05:43:15.313Z,89.40
2023-05-22T05:45:43.686Z,89.40
2023-05-22T05:48:12.025Z,89.50
2023-05-22T05:50:39.276Z,89.60
2023-05-22T05:53:08.244Z,89.70
2023-05-22T05:55:34.975Z,89.70
2023-05-22T05:58:01.697Z,89.80
2023-05-22T06:00:28.623Z,89.90
2023-05-22T06:02:56.083Z,89.90
2023-05-22T06:05:23.334Z,90.00
2023-05-22T06:07:50.378Z,90.00
2023-05-22T06:10:17.164Z,90.00
2023-05-22T06:12:44.127Z,90.00
2023-05-22T06:15:13.164Z,90.00
2023-05-22T06:17:41.847Z,90.00
2023-05-22T06:20:09.298Z,90.00
2023-05-22T06:22:36.581Z,90.00
2023-05-22T06:25:03.468Z,90.00
2023-05-22T06:27:30.296Z,90.00
2023-05-22T06:29:57.072Z,90.00
2023-05-22T06:32:23.885Z,89.80
2023-05-22T06:34:50.867Z,89.70
2023-05-22T06:37:17.663Z,89.70
2023-05-22T06:39:44.592Z,89.60
2023-05-22T06:42:11.376Z,89.50
2023-05-22T06:44:38.296Z,89.40
2023-05-22T06:47:05.563Z,89.20
2023-05-22T06:49:32.413Z,89.10
2023-05-22T06:52:00.354Z,89.00
2023-05-22T06:54:29.506Z,88.70
2023-05-22T06:56:57.008Z,88.70
2023-05-22T06:59:23.801Z,88.70
2023-05-22T07:01:50.698Z,88.30
2023-05-22T07:04:17.692Z,88.30
2023-05-22T07:06:45.673Z,88.20
2023-05-22T07:09:13.836Z,88.00
2023-05-22T07:11:42.831Z,87.80
2023-05-22T07:14:09.954Z,87.50
2023-05-22T07:16:37.237Z,87.30
2023-05-22T07:19:04.051Z,87.10
2023-05-22T07:21:32.272Z,87.00
2023-05-22T07:23:59.008Z,86.90
2023-05-22T07:26:27.491Z,86.80
2023-05-22T07:28:55.609Z,86.60
2023-05-22T07:31:22.393Z,86.40
2023-05-22T07:33:49.137Z,86.30
2023-05-22T07:36:17.431Z,86.10
2023-05-22T07:38:44.255Z,86.20
2023-05-22T07:41:11.080Z,86.00
2023-05-22T07:43:37.837Z,85.70
2023-05-22T07:46:06.277Z,85.60
2023-05-22T07:48:33.168Z,85.40
2023-05-22T07:50:59.933Z,85.20
2023-05-22T07:53:26.761Z,85.00
2023-05-22T07:55:53.502Z,84.90
2023-05-22T07:58:20.314Z,84.80
2023-05-22T08:00:47.538Z,84.60
2023-05-22T08:03:14.416Z,84.40
2023-05-22T08:05:41.437Z,84.20
2023-05-22T08:08:10.285Z,83.90
2023-05-22T08:10:47.166Z,83.70
2023-05-22T08:13:23.856Z,84.30
2023-05-22T08:15:50.761Z,83.40
2023-05-22T08:18:28.085Z,83.30
2023-05-22T08:20:55.064Z,82.90
2023-05-22T08:23:21.906Z,82.60
2023-05-22T08:25:50.111Z,82.40
2023-05-22T08:28:17.257Z,82.30
2023-05-22T08:30:44.160Z,82.00
2023-05-22T08:33:12.205Z,81.80
2023-05-22T08:35:39.588Z,81.90
2023-05-22T08:38:06.522Z,82.00
2023-05-22T08:40:38.330Z,81.60
2023-05-22T08:43:06.470Z,81.30
2023-05-22T08:45:36.353Z,80.70
2023-05-22T08:48:08.134Z,80.20
2023-05-22T08:50:44.475Z,79.50
2023-05-22T08:53:15.094Z,79.10
2023-05-22T08:55:42.515Z,78.80
2023-05-22T08:58:11.273Z,78.10
2023-05-22T09:00:38.254Z,77.70
2023-05-22T09:03:07.016Z,77.30
2023-05-22T09:05:34.207Z,77.00
2023-05-22T09:08:15.947Z,76.80
2023-05-22T09:10:46.351Z,76.50
2023-05-22T09:13:28.558Z,76.20
2023-05-22T09:16:17.104Z,75.70
2023-05-22T09:18:44.029Z,75.40
2023-05-22T09:21:25.509Z,74.90
2023-05-22T09:24:01.241Z,74.20
2023-05-22T09:26:33.607Z,73.80
2023-05-22T09:29:01.164Z,72.90
2023-05-22T09:31:31.794Z,72.90
2023-05-22T09:33:59.755Z,72.80
2023-05-22T09:36:36.317Z,72.90
2023-05-22T09:39:04.651Z,72.30
2023-05-22T09:41:36.606Z,72.40
2023-05-22T09:44:12.765Z,72.30
2023-05-22T09:46:49.757Z,72.40
2023-05-22T09:49:17.604Z,72.10
2023-05-22T09:51:48.179Z,71.60
2023-05-22T09:54:17.496Z,71.00
2023-05-22T09:56:45.574Z,69.80
2023-05-22T09:59:13.847Z,68.90
2023-05-22T10:01:42.627Z,68.50
2023-05-22T10:04:13.984Z,68.50
2023-05-22T10:06:42.786Z,68.40
2023-05-22T10:09:18.279Z,68.30
2023-05-22T10:11:47.398Z,68.30
2023-05-22T10:14:14.910Z,68.50
2023-05-22T10:16:43.182Z,68.20
2023-05-22T10:19:11.738Z,68.50
2023-05-22T10:21:41.323Z,68.60
2023-05-22T10:24:08.612Z,68.50
2023-05-22T10:26:35.931Z,68.60
2023-05-22T10:29:21.156Z,68.80
2023-05-22T10:32:04.197Z,68.90
2023-05-22T10:34:56.983Z,69.30
2023-05-22T10:37:42.420Z,69.00
2023-05-22T10:40:12.048Z,68.20
2023-05-22T10:42:40.351Z,68.00
2023-05-22T10:45:08.212Z,67.90
2023-05-22T10:47:35.155Z,67.50
2023-05-22T10:50:12.642Z,67.30
2023-05-22T10:52:40.205Z,67.30
2023-05-22T10:55:11.192Z,67.50
2023-05-22T10:57:39.709Z,67.20
2023-05-22T11:00:16.377Z,67.40
2023-05-22T11:02:45.288Z,67.10
2023-05-22T11:05:25.638Z,67.50
2023-05-22T11:07:52.588Z,67.40
2023-05-22T11:10:52.302Z,67.30
2023-05-22T11:13:19.139Z,66.80
2023-05-22T11:15:46.805Z,67.00
2023-05-22T11:18:16.802Z,66.80
2023-05-22T11:20:44.422Z,66.90
2023-05-22T11:23:11.534Z,66.50
2023-05-22T11:25:41.190Z,66.50
2023-05-22T11:28:10.547Z,66.40
2023-05-22T11:30:38.336Z,66.30
2023-05-22T11:33:06.603Z,66.30
2023-05-22T11:35:34.057Z,66.30
2023-05-22T11:38:05.852Z,65.70
2023-05-22T11:40:32.768Z,65.40
2023-05-22T11:42:59.628Z,65.70
2023-05-22T11:45:27.104Z,65.50
2023-05-22T11:47:54.006Z,65.60
2023-05-22T11:50:33.265Z,66.40
2023-05-22T11:53:02.874Z,66.00
2023-05-22T11:55:29.673Z,65.10
2023-05-22T11:57:56.692Z,64.80
2023-05-22T12:00:23.731Z,64.30
2023-05-22T12:02:50.854Z,64.40
2023-05-22T12:05:21.445Z,65.30
2023-05-22T12:07:48.355Z,65.30
2023-05-22T12:10:15.594Z,64.90
2023-05-22T12:12:44.075Z,64.20
2023-05-22T12:15:11.260Z,63.90
2023-05-22T12:17:38.573Z,64.20
2023-05-22T12:20:07.120Z,64.10
2023-05-22T12:22:34.010Z,63.80
2023-05-22T12:25:00.800Z,63.40
2023-05-22T12:27:33.387Z,62.90
2023-05-22T12:30:10.389Z,63.60
2023-05-22T12:32:37.288Z,63.40
2023-05-22T12:35:04.319Z,63.00
2023-05-22T12:37:33.759Z,62.50
2023-05-22T12:40:04.074Z,62.10
2023-05-22T12:42:31.115Z,61.80
2023-05-22T12:45:00.886Z,61.30
2023-05-22T12:47:27.897Z,61.40
2023-05-22T12:49:54.837Z,61.90
2023-05-22T12:52:21.673Z,60.90
2023-05-22T12:54:48.575Z,60.70
2023-05-22T12:57:16.810Z,60.50
2023-05-22T12:59:43.873Z,60.40
2023-05-22T13:02:10.744Z,60.80
2023-05-22T13:04:37.651Z,61.00
2023-05-22T13:07:04.493Z,61.20
2023-05-22T13:09:31.382Z,61.40
2023-05-22T13:11:58.295Z,61.00
2023-05-22T13:14:25.221Z,61.30
2023-05-22T13:16:52.008Z,61.10
2023-05-22T13:19:18.787Z,61.30
2023-05-22T13:21:45.615Z,60.50
2023-05-22T13:24:14.395Z,59.90
2023-05-22T13:26:41.156Z,58.30
2023-05-22T13:29:07.976Z,58.10
2023-05-22T13:31:37.840Z,58.00
2023-05-22T13:34:04.984Z,58.20
2023-05-22T13:36:32.517Z,57.60
2023-05-22T13:38:59.540Z,58.80
2023-05-22T13:41:26.734Z,59.70
2023-05-22T13:43:53.824Z,60.10
2023-05-22T13:46:21.758Z,59.80
2023-05-22T13:48:48.732Z,59.90
2023-05-22T13:51:15.619Z,59.40
2023-05-22T13:53:42.502Z,59.30
2023-05-22T13:56:09.293Z,59.50
2023-05-22T13:58:36.081Z,58.70
2023-05-22T14:01:02.843Z,57.80
2023-05-22T14:03:29.704Z,57.10
2023-05-22T14:05:56.621Z,56.60
2023-05-22T14:08:24.669Z,56.40
2023-05-22T14:10:51.514Z,56.60
2023-05-22T14:13:18.463Z,56.70
2023-05-22T14:15:46.936Z,57.70
2023-05-22T14:18:14.545Z,57.70
2023-05-22T14:20:41.706Z,56.60
2023-05-22T14:23:08.948Z,56.40
2023-05-22T14:25:35.788Z,56.10
2023-05-22T14:28:02.593Z,56.00
2023-05-22T14:30:29.359Z,56.30
2023-05-22T14:32:56.137Z,56.60
2023-05-22T14:35:22.994Z,57.80
2023-05-22T14:37:49.835Z,57.00
2023-05-22T14:40:16.720Z,57.20
2023-05-22T14:42:44.921Z,57.40
2023-05-22T14:45:12.125Z,57.60
2023-05-22T14:47:41.799Z,58.00
2023-05-22T14:50:19.004Z,58.40
2023-05-22T14:52:47.761Z,58.60
2023-05-22T14:55:14.964Z,58.90
2023-05-22T14:57:41.777Z,59.30
2023-05-22T15:00:10.049Z,59.70
2023-05-22T15:02:37.294Z,60.10
2023-05-22T15:05:04.654Z,60.20
2023-05-22T15:07:43.179Z,60.40
2023-05-22T15:10:12.280Z,60.80
2023-05-22T15:12:40.202Z,60.90
2023-05-22T15:15:07.718Z,61.10
2023-05-22T15:17:34.521Z,61.00
2023-05-22T15:20:01.376Z,60.80
2023-05-22T15:22:28.145Z,60.50
2023-05-22T15:25:09.390Z,60.60
2023-05-22T15:27:36.293Z,58.10
2023-05-22T15:30:04.574Z,58.50
2023-05-22T15:32:34.539Z,58.70
2023-05-22T15:35:01.489Z,58.40
2023-05-22T15:37:34.058Z,58.40
2023-05-22T15:40:01.826Z,58.70
2023-05-22T15:42:28.929Z,58.60
2023-05-22T15:44:55.998Z,58.40
2023-05-22T15:47:22.762Z,58.90
2023-05-22T15:49:49.612Z,59.10
2023-05-22T15:52:16.773Z,59.30
2023-05-22T15:54:43.576Z,59.00
2023-05-22T15:57:10.519Z,59.30
2023-05-22T15:59:37.407Z,59.10
2023-05-22T16:02:04.497Z,59.10
2023-05-22T16:04:31.472Z,59.60
2023-05-22T16:06:58.229Z,59.60
2023-05-22T16:09:24.992Z,59.50
2023-05-22T16:11:51.737Z,59.60
2023-05-22T16:14:18.544Z,59.60
2023-05-22T16:16:45.413Z,59.50
2023-05-22T16:19:12.197Z,59.20
2023-05-22T16:21:39.265Z,59.30
2023-05-22T16:24:07.044Z,59.50
2023-05-22T16:26:34.066Z,59.40
2023-05-22T16:29:01.105Z,59.40
2023-05-22T16:31:28.744Z,59.50
2023-05-22T16:33:55.851Z,59.40
2023-05-22T16:36:23.283Z,59.10
2023-05-22T16:38:51.336Z,59.00
2023-05-22T16:41:18.283Z,59.10
2023-05-22T16:43:45.054Z,58.70
2023-05-22T16:46:12.029Z,58.80
2023-05-22T16:48:38.878Z,58.90
2023-05-22T16:51:05.683Z,58.80
2023-05-22T16:53:32.530Z,58.00
2023-05-22T16:55:59.843Z,58.20
2023-05-22T16:58:26.760Z,58.20
2023-05-22T17:00:53.734Z,58.50
2023-05-22T17:03:20.744Z,58.80
2023-05-22T17:05:48.015Z,59.00
2023-05-22T17:08:14.893Z,59.30
2023-05-22T17:10:41.752Z,59.60
2023-05-22T17:13:09.249Z,59.70
2023-05-22T17:15:36.069Z,59.70
2023-05-22T17:18:04.167Z,59.80
2023-05-22T17:20:32.901Z,59.90
2023-05-22T17:22:59.705Z,60.10
2023-05-22T17:25:26.528Z,60.30
2023-05-22T17:27:53.305Z,60.50
2023-05-22T17:30:20.219Z,60.70
2023-05-22T17:32:47.060Z,61.00
2023-05-22T17:35:13.838Z,61.20
2023-05-22T17:37:40.609Z,61.30
2023-05-22T17:40:08.205Z,62.30
2023-05-22T17:42:34.952Z,61.60
2023-05-22T17:45:01.703Z,61.80
2023-05-22T17:47:28.470Z,61.90
2023-05-22T17:49:55.758Z,61.90
2023-05-22T17:52:22.498Z,62.20
2023-05-22T17:54:49.977Z,63.50
2023-05-22T17:57:16.743Z,62.70
2023-05-22T17:59:44.065Z,62.10
2023-05-22T18:02:11.968Z,61.60
2023-05-22T18:04:38.772Z,61.00
2023-05-22T18:07:05.858Z,60.90
2023-05-22T18:09:32.800Z,60.60
2023-05-22T18:12:01.622Z,60.20
2023-05-22T18:14:28.439Z,59.80
2023-05-22T18:16:55.220Z,59.40
2023-05-22T18:19:22.011Z,59.50
2023-05-22T18:21:48.798Z,59.60
2023-05-22T18:24:15.646Z,59.30
2023-05-22T18:26:42.410Z,59.20
2023-05-22T18:29:09.174Z,58.60
2023-05-22T18:31:35.907Z,58.50
2023-05-22T18:34:02.702Z,58.50
2023-05-22T18:36:29.437Z,58.60
2023-05-22T18:38:56.138Z,58.70
2023-05-22T18:41:22.947Z,58.70
2023-05-22T18:43:49.736Z,58.70
2023-05-22T18:46:18.614Z,58.90
2023-05-22T18:48:45.531Z,59.10
2023-05-22T18:51:13.344Z,59.40
2023-05-22T18:53:40.539Z,59.80
2023-05-22T18:56:07.333Z,60.20
2023-05-22T18:58:34.147Z,60.70
2023-05-22T19:01:01.719Z,61.00
2023-05-22T19:03:28.598Z,61.40
2023-05-22T19:05:55.448Z,61.60
2023-05-22T19:08:24.838Z,62.00
2023-05-22T19:10:51.642Z,62.20
2023-05-22T19:13:18.553Z,62.80
2023-05-22T19:15:46.425Z,63.00
2023-05-22T19:18:13.215Z,63.40
2023-05-22T19:20:40.312Z,63.60
2023-05-22T19:23:09.336Z,64.00
2023-05-22T19:25:36.307Z,64.20
2023-05-22T19:28:03.364Z,64.60
2023-05-22T19:30:30.163Z,64.80
2023-05-22T19:32:56.928Z,65.20
2023-05-22T19:35:23.803Z,65.60
2023-05-22T19:37:50.673Z,65.90
2023-05-22T19:40:17.558Z,66.30
2023-05-22T19:42:44.443Z,66.50
2023-05-22T19:45:11.410Z,66.70
2023-05-22T19:47:38.234Z,67.10
2023-05-22T19:50:05.922Z,67.50
2023-05-22T19:52:33.713Z,67.80
2023-05-22T19:55:00.489Z,67.90
2023-05-22T19:57:27.556Z,68.20
2023-05-22T19:59:55.272Z,68.40
2023-05-22T20:02:22.078Z,68.60
2023-05-22T20:04:48.903Z,69.00
2023-05-22T20:07:15.769Z,69.40
2023-05-22T20:09:42.589Z,69.60
2023-05-22T20:12:10.431Z,69.80
2023-05-22T20:14:37.594Z,70.00
2023-05-22T20:17:04.706Z,70.30
2023-05-22T20:19:32.679Z,70.60
2023-05-22T20:21:59.666Z,70.80
2023-05-22T20:24:26.529Z,71.10
2023-05-22T20:26:53.597Z,71.40
2023-05-22T20:29:20.368Z,71.70
2023-05-22T20:31:47.215Z,71.80
2023-05-22T20:34:14.014Z,72.00
2023-05-22T20:36:42.575Z,72.20
2023-05-22T20:39:11.743Z,72.70
2023-05-22T20:41:38.627Z,72.90
2023-05-22T20:44:06.408Z,73.00
2023-05-22T20:46:33.281Z,73.20
2023-05-22T20:49:00.198Z,73.30
2023-05-22T20:51:32.508Z,73.60
2023-05-22T20:53:59.879Z,73.80
2023-05-22T20:56:27.183Z,74.10
2023-05-22T20:58:54.908Z,74.20
2023-05-22T21:01:22.350Z,74.60
2023-05-22T21:03:52.381Z,75.50
2023-05-22T21:06:20.108Z,74.70
2023-05-22T21:08:46.908Z,75.00
2023-05-22T21:11:13.643Z,75.20
2023-05-22T21:13:40.483Z,75.30
2023-05-22T21:16:07.351Z,75.20
2023-05-22T21:18:34.124Z,74.90
2023-05-22T21:21:00.982Z,74.70
2023-05-22T21:23:27.730Z,74.60
2023-05-22T21:25:54.518Z,74.60
2023-05-22T21:28:21.320Z,74.50
2023-05-22T21:30:48.180Z,74.50
2023-05-22T21:33:15.195Z,74.80
2023-05-22T21:35:42.154Z,74.90
2023-05-22T21:38:09.003Z,74.90
2023-05-22T21:40:35.796Z,75.90
2023-05-22T21:43:02.565Z,75.00
2023-05-22T21:45:29.343Z,75.20
2023-05-22T21:47:56.191Z,75.30
2023-05-22T21:50:22.972Z,76.40
2023-05-22T21:52:49.854Z,75.70
2023-05-22T21:55:16.628Z,75.80
2023-05-22T21:57:45.454Z,75.90
2023-05-22T22:00:13.288Z,76.00
2023-05-22T22:02:41.807Z,76.20
2023-05-22T22:05:08.947Z,76.30
2023-05-22T22:07:35.969Z,76.50
2023-05-22T22:10:02.758Z,76.70
2023-05-22T22:12:29.628Z,76.70
2023-05-22T22:14:59.470Z,76.90
2023-05-22T22:17:26.288Z,77.10
2023-05-22T22:19:53.698Z,77.20
2023-05-22T22:22:22.897Z,77.30
2023-05-22T22:24:49.825Z,77.60
2023-05-22T22:27:17.010Z,77.70
2023-05-22T22:29:44.035Z,78.00
2023-05-22T22:32:11.018Z,78.10
2023-05-22T22:34:37.891Z,78.40
2023-05-22T22:37:05.894Z,78.40
2023-05-22T22:39:32.622Z,78.50
2023-05-22T22:42:04.130Z,78.40
2023-05-22T22:44:32.142Z,78.50
2023-05-22T22:46:58.982Z,78.80
2023-05-22T22:49:25.795Z,79.00
2023-05-22T22:51:52.606Z,79.10
2023-05-22T22:54:19.418Z,79.10
2023-05-22T22:56:47.284Z,79.20
2023-05-22T22:59:14.116Z,79.50
2023-05-22T23:01:40.899Z,79.40
2023-05-22T23:04:07.853Z,80.50
2023-05-22T23:06:35.266Z,79.60
2023-05-22T23:09:03.780Z,79.70
2023-05-22T23:11:39.309Z,79.70
2023-05-22T23:14:09.511Z,79.50
2023-05-22T23:16:37.769Z,79.60
2023-05-22T23:19:05.302Z,79.60
2023-05-22T23:21:32.905Z,79.50
2023-05-22T23:24:00.620Z,79.70
2023-05-22T23:26:33.887Z,79.70
2023-05-22T23:29:01.316Z,79.80
2023-05-22T23:31:30.613Z,79.80
2023-05-22T23:33:58.178Z,79.90
2023-05-22T23:36:25.548Z,80.10
2023-05-22T23:38:52.395Z,80.20
2023-05-22T23:41:19.122Z,80.20
2023-05-22T23:43:46.439Z,80.10
2023-05-22T23:46:14.152Z,80.20
2023-05-22T23:48:42.394Z,80.40
2023-05-22T23:51:09.969Z,80.30
2023-05-22T23:53:37.329Z,80.50
2023-05-22T23:56:04.756Z,80.50
2023-05-22T23:58:32.214Z,80.60
